createdAt,value
2022-09-26T00:00:08.045Z,63.62
2022-09-26T00:05:08.583Z,63.64
2022-09-26T00:10:08.289Z,63.62
2022-09-26T00:15:07.969Z,63.62
2022-09-26T00:20:07.698Z,63.62
2022-09-26T00:25:08.396Z,63.62
2022-09-26T00:30:08.064Z,63.62
2022-09-26T00:35:07.782Z,63.61
2022-09-26T00:40:08.498Z,63.6
2022-09-26T00:45:08.241Z,63.61
2022-09-26T00:50:07.899Z,63.6
2022-09-26T00:55:08.582Z,63.61
2022-09-26T01:00:08.292Z,63.61
2022-09-26T01:05:08.005Z,63.61
2022-09-26T01:10:07.711Z,63.61
2022-09-26T01:15:08.422Z,63.62
2022-09-26T01:20:08.087Z,63.62
2022-09-26T01:25:07.816Z,63.61
2022-09-26T01:30:08.771Z,63.62
2022-09-26T01:35:17.197Z,63.64
2022-09-26T01:40:07.939Z,63.63
2022-09-26T01:45:08.630Z,63.63
2022-09-26T01:50:08.287Z,63.62
2022-09-26T01:55:08.004Z,63.63
2022-09-26T02:00:07.708Z,63.61
2022-09-26T02:05:08.474Z,63.64
2022-09-26T02:10:08.185Z,63.63
2022-09-26T02:15:07.840Z,63.63
2022-09-26T02:20:08.536Z,63.62
2022-09-26T02:25:08.223Z,63.64
2022-09-26T02:30:07.878Z,63.64
2022-09-26T02:35:08.557Z,63.62
2022-09-26T02:40:08.585Z,63.63
2022-09-26T02:45:08.313Z,63.63
2022-09-26T02:50:08.021Z,63.62
2022-09-26T02:55:07.740Z,63.65
2022-09-26T03:00:08.399Z,63.62
2022-09-26T03:05:08.155Z,63.65
2022-09-26T03:10:07.929Z,63.65
2022-09-26T03:15:08.618Z,63.64
2022-09-26T03:20:08.310Z,63.66
2022-09-26T03:25:07.982Z,63.67
2022-09-26T03:30:07.677Z,63.67
2022-09-26T03:35:08.345Z,63.64
2022-09-26T03:40:08.394Z,63.68
2022-09-26T03:45:08.090Z,63.68
2022-09-26T03:50:07.792Z,63.7
2022-09-26T03:55:08.534Z,63.7
2022-09-26T04:00:08.244Z,63.68
2022-09-26T04:05:02.196Z,63.71
2022-09-26T04:10:02.041Z,63.7
2022-09-26T04:15:02.039Z,63.7
2022-09-26T04:20:02.033Z,63.73
2022-09-26T04:25:01.808Z,63.71
2022-09-26T04:30:02.733Z,63.71
2022-09-26T04:35:02.731Z,63.74
2022-09-26T04:40:02.631Z,63.74
2022-09-26T04:45:02.479Z,63.72
2022-09-26T04:50:02.349Z,63.72
2022-09-26T04:55:02.163Z,63.74
2022-09-26T05:00:02.060Z,63.75
2022-09-26T05:05:02.036Z,63.79
2022-09-26T05:10:01.838Z,63.75
2022-09-26T05:15:02.769Z,63.75
2022-09-26T05:20:02.574Z,63.76
2022-09-26T05:25:02.339Z,63.76
2022-09-26T05:30:02.289Z,63.77
2022-09-26T05:35:02.089Z,63.78
2022-09-26T05:40:01.923Z,63.78
2022-09-26T05:45:02.816Z,63.8
2022-09-26T05:50:02.659Z,63.79
2022-09-26T05:55:02.484Z,63.82
2022-09-26T06:00:02.295Z,63.81
2022-09-26T06:05:02.241Z,63.81
2022-09-26T06:10:02.014Z,63.83
2022-09-26T06:15:01.949Z,63.85
2022-09-26T06:20:01.858Z,63.85
2022-09-26T06:25:03.256Z,63.89
2022-09-26T06:30:02.115Z,63.88
2022-09-26T06:35:02.131Z,63.85
2022-09-26T06:40:02.007Z,63.85
2022-09-26T06:45:01.989Z,63.88
2022-09-26T06:50:01.848Z,63.89
2022-09-26T06:55:02.594Z,63.88
2022-09-26T07:00:02.529Z,63.88
2022-09-26T07:05:02.380Z,63.9
2022-09-26T07:10:02.211Z,63.9
2022-09-26T07:15:02.120Z,63.92
2022-09-26T07:20:01.948Z,63.92
2022-09-26T07:25:01.824Z,63.93
2022-09-26T07:30:02.817Z,63.95
2022-09-26T07:35:02.689Z,63.93
2022-09-26T07:40:02.560Z,63.94
2022-09-26T07:45:22.229Z,63.94
2022-09-26T07:50:02.540Z,63.94
2022-09-26T07:55:02.461Z,63.93
2022-09-26T08:00:02.305Z,63.93
2022-09-26T08:05:02.259Z,63.93
2022-09-26T08:10:02.109Z,63.91
2022-09-26T08:15:01.951Z,63.9
2022-09-26T08:20:01.906Z,63.9
2022-09-26T08:25:02.776Z,63.89
2022-09-26T08:30:03.339Z,63.9
2022-09-26T08:35:02.139Z,63.9
2022-09-26T08:40:01.979Z,63.88
2022-09-26T08:45:01.840Z,63.89
2022-09-26T08:50:02.643Z,63.88
2022-09-26T08:55:02.611Z,63.9
2022-09-26T09:00:02.595Z,63.92
2022-09-26T09:05:02.609Z,63.9
2022-09-26T09:10:02.577Z,63.92
2022-09-26T09:15:25.088Z,63.93
2022-09-26T09:20:02.031Z,63.93
2022-09-26T09:25:02.014Z,63.93
2022-09-26T09:30:03.209Z,63.92
2022-09-26T09:35:02.181Z,63.92
2022-09-26T09:40:01.978Z,63.91
2022-09-26T09:45:01.838Z,63.92
2022-09-26T09:50:02.658Z,63.92
2022-09-26T09:55:02.486Z,63.93
2022-09-26T10:00:02.499Z,63.92
2022-09-26T10:05:02.395Z,63.92
2022-09-26T10:10:02.148Z,63.92
2022-09-26T10:15:01.982Z,63.94
2022-09-26T10:20:01.822Z,63.95
2022-09-26T10:25:02.748Z,63.96
2022-09-26T10:30:02.524Z,63.96
2022-09-26T10:35:02.380Z,63.94
2022-09-26T10:40:02.302Z,63.97
2022-09-26T10:45:02.091Z,63.94
2022-09-26T10:50:01.979Z,63.94
2022-09-26T10:55:01.726Z,63.93
2022-09-26T11:00:02.510Z,63.92
2022-09-26T11:05:02.362Z,63.91
2022-09-26T11:10:02.149Z,63.89
2022-09-26T11:15:03.936Z,63.89
2022-09-26T11:20:01.872Z,63.88
2022-09-26T11:25:02.703Z,63.86
2022-09-26T11:30:02.598Z,63.89
2022-09-26T11:35:02.667Z,63.89
2022-09-26T11:40:07.186Z,63.9
2022-09-26T11:45:02.310Z,63.9
2022-09-26T11:50:02.259Z,63.93
2022-09-26T11:55:02.174Z,63.94
2022-09-26T12:00:02.139Z,63.93
2022-09-26T12:05:01.942Z,63.98
2022-09-26T12:10:02.046Z,63.99
2022-09-26T12:15:04.823Z,64.04
2022-09-26T12:20:02.638Z,64.03
2022-09-26T12:25:02.623Z,64.05
2022-09-26T12:30:02.390Z,64.08
2022-09-26T12:35:09.245Z,64.12
2022-09-26T12:40:02.102Z,64.11
2022-09-26T12:45:01.873Z,64.16
2022-09-26T12:50:02.730Z,64.16
2022-09-26T12:55:02.541Z,64.18
2022-09-26T13:00:12.365Z,64.2
2022-09-26T13:05:02.225Z,64.22
2022-09-26T13:10:02.079Z,64.22
2022-09-26T13:15:02.012Z,64.26
2022-09-26T13:20:01.799Z,64.27
2022-09-26T13:25:02.561Z,64.3
2022-09-26T13:30:02.444Z,64.33
2022-09-26T13:35:12.255Z,64.4
2022-09-26T13:40:02.034Z,64.37
2022-09-26T13:45:01.891Z,64.37
2022-09-26T13:50:02.703Z,64.41
2022-09-26T13:55:02.574Z,64.41
2022-09-26T14:00:02.375Z,64.44
2022-09-26T14:05:02.286Z,64.46
2022-09-26T14:10:02.137Z,64.49
2022-09-26T14:15:01.956Z,64.49
2022-09-26T14:20:01.945Z,64.51
2022-09-26T14:25:01.810Z,64.53
2022-09-26T14:30:02.676Z,64.54
2022-09-26T14:35:02.636Z,64.57
2022-09-26T14:40:02.556Z,64.59
2022-09-26T14:45:02.474Z,64.57
2022-09-26T14:50:03.706Z,64.6
2022-09-26T14:55:02.759Z,64.62
2022-09-26T15:00:02.579Z,64.64
2022-09-26T15:05:02.421Z,64.65
2022-09-26T15:10:02.216Z,64.62
2022-09-26T15:15:04.855Z,64.66
2022-09-26T15:20:02.131Z,64.68
2022-09-26T15:25:01.964Z,64.66
2022-09-26T15:30:01.763Z,64.69
2022-09-26T15:35:02.652Z,64.7
2022-09-26T15:40:02.523Z,64.7
2022-09-26T15:45:02.363Z,64.71
2022-09-26T15:50:02.320Z,64.71
2022-09-26T15:55:02.318Z,64.75
2022-09-26T16:00:02.414Z,64.76
2022-09-26T16:05:02.286Z,64.78
2022-09-26T16:10:02.142Z,64.78
2022-09-26T16:15:06.449Z,64.76
2022-09-26T16:20:02.282Z,64.79
2022-09-26T16:25:02.085Z,64.8
2022-09-26T16:30:05.284Z,64.8
2022-09-26T16:35:02.374Z,64.83
2022-09-26T16:40:02.343Z,64.83
2022-09-26T16:45:02.182Z,64.86
2022-09-26T16:50:02.026Z,64.87
2022-09-26T16:55:01.785Z,64.89
2022-09-26T17:00:02.704Z,64.91
2022-09-26T17:05:02.618Z,64.92
2022-09-26T17:10:02.564Z,64.92
2022-09-26T17:15:02.432Z,64.94
2022-09-26T17:20:02.368Z,64.95
2022-09-26T17:25:02.451Z,64.98
2022-09-26T17:30:02.355Z,64.99
2022-09-26T17:35:02.289Z,64.99
2022-09-26T17:40:02.196Z,65.03
2022-09-26T17:45:02.034Z,65.03
2022-09-26T17:50:01.963Z,65.08
2022-09-26T17:55:01.771Z,65.05
2022-09-26T18:00:02.674Z,65.07
2022-09-26T18:05:02.483Z,65.09
2022-09-26T18:10:02.282Z,65.1
2022-09-26T18:15:02.264Z,65.11
2022-09-26T18:20:03.089Z,65.15
2022-09-26T18:25:01.971Z,65.16
2022-09-26T18:30:01.861Z,65.15
2022-09-26T18:35:02.689Z,65.17
2022-09-26T18:40:04.293Z,65.2
2022-09-26T18:45:02.430Z,65.18
2022-09-26T18:50:02.377Z,65.23
2022-09-26T18:55:02.215Z,65.24
2022-09-26T19:00:02.028Z,65.25
2022-09-26T19:05:01.867Z,65.26
2022-09-26T19:10:02.709Z,65.26
2022-09-26T19:15:02.562Z,65.28
2022-09-26T19:20:02.422Z,65.3
2022-09-26T19:25:02.275Z,65.3
2022-09-26T19:30:02.143Z,65.29
2022-09-26T19:35:01.982Z,65.31
2022-09-26T19:40:01.862Z,65.29
2022-09-26T19:45:02.641Z,65.31
2022-09-26T19:50:02.426Z,65.33
2022-09-26T19:55:02.487Z,65.33
2022-09-26T20:00:02.457Z,65.33
2022-09-26T20:05:02.337Z,65.34
2022-09-26T20:10:02.199Z,65.34
2022-09-26T20:15:02.162Z,65.35
2022-09-26T20:20:01.972Z,65.37
2022-09-26T20:25:01.777Z,65.38
2022-09-26T20:30:02.616Z,65.39
2022-09-26T20:35:15.304Z,65.38
2022-09-26T20:40:08.170Z,65.4
2022-09-26T20:45:07.859Z,65.4
2022-09-26T20:50:08.545Z,65.41
2022-09-26T20:55:08.225Z,65.41
2022-09-26T21:00:07.941Z,65.45
2022-09-26T21:05:08.646Z,65.44
2022-09-26T21:10:08.449Z,65.43
2022-09-26T21:15:08.184Z,65.42
2022-09-26T21:20:07.932Z,65.45
2022-09-26T21:25:08.785Z,65.48
2022-09-26T21:30:08.486Z,65.49
2022-09-26T21:35:08.198Z,65.5
2022-09-26T21:40:08.302Z,65.52
2022-09-26T21:45:07.988Z,65.53
2022-09-26T21:50:07.680Z,65.56
2022-09-26T21:55:08.387Z,65.56
2022-09-26T22:00:08.148Z,65.58
2022-09-26T22:05:07.843Z,65.64
2022-09-26T22:10:08.608Z,65.65
2022-09-26T22:15:08.291Z,65.71
2022-09-26T22:20:07.986Z,65.73
2022-09-26T22:25:07.678Z,65.79
2022-09-26T22:30:08.416Z,65.81
2022-09-26T22:35:08.214Z,65.83
2022-09-26T22:40:07.892Z,65.88
2022-09-26T22:45:08.631Z,65.91
2022-09-26T22:50:08.316Z,65.92
2022-09-26T22:55:07.982Z,65.96
2022-09-26T23:01:00.639Z,65.95
2022-09-26T23:05:08.481Z,65.99
2022-09-26T23:10:08.176Z,66.02
2022-09-26T23:15:07.856Z,66.03
2022-09-26T23:20:08.603Z,66.06
2022-09-26T23:25:08.298Z,66.06
2022-09-26T23:30:07.987Z,66.08
2022-09-26T23:35:07.674Z,66.12
2022-09-26T23:40:08.352Z,66.11
2022-09-26T23:45:08.045Z,66.13
2022-09-26T23:50:08.514Z,66.15
2022-09-26T23:55:08.216Z,66.16
